Loisir ou Compétition : Rejoignez un Club de la Fédération

Résultats

SAMSE NATIONAL TOUR 5 - KO SPRINT

LES ROUSSES - Stade des Tuffes

KO-QLF Hommes

Jury de Compétition

Délégué Technique :
TICHIT PHILIPPE (MJ)
D.T. Adjoint :
FROSSARD CHRISTIAN (SA)
Dir. Epreuve :
ARDIET NICOLAS (MJ)

Caractéristiques de la Piste

Piste :
Stade des Tuffes
Distance :
1 km
Point Haut :
 
Point Bas :
 
Montée Tot. :
 
Montée Max. :
 
Homologation :
 

Pénalité Appliquée :
90.0000
Coefficient :
1200

Catégorie :
U17
Style :
L
Clt Dos Clt/Cat Code An Nom Prénom Com Club Temps Ecart Points
Classés
1 192 1/U17 FFS2663675 2003 ESSONNIER IVAN SA CS LA FECLAZ 2:35.03 00.00 90.00
2 293 2/U17 FNS001 2003 PITTIER ILAN SP SUISSE 2:35.26 00.23 91.78
3 197 3/U17 FFS2676808 2003 JAVAUX ESTEBAN MJ ES SAUGETTE 2:35.59 00.56 94.33
4 195 4/U17 FFS2670501 2003 MARTINET IAN MJ HT JURA SKI 2:37.69 02.66 110.59
5 213 5/U17 FFS2666640 2004 LAISSUS MILHAN SA SC MENUIRES 2:37.74 02.71 110.98
6 191 6/U17 FFS2676385 2003 PATUREL GAETAN MB SCNP ROCHOIS 2:38.06 03.03 113.45
7 204 7/U17 FFS2659048 2003 BAYLAC ADRIEN DA CO 7 LAUX GR 2:38.12 03.09 113.92
8 202 8/U17 FFS2682382 2003 BOURGON JULES MJ SC VERRIERES 2:38.23 03.20 114.77
9 211 9/U17 FFS2671811 2003 TYRODE JOSSE MJ SC LESFOURGS 2:38.37 03.34 115.85
10 222 10/U17 FFS2683262 2003 BOLE DU CHOMONT MATTEO MJ A.S MOUTHE 2:38.91 03.88 120.03
11 212 11/U17 FFS2682672 2003 GENY EDGAR MB SALLANCHES 2:39.46 04.43 124.29
12 196 12/U17 FFS2656962 2003 GARNIER AXEL MB SALLANCHES 2:39.64 04.61 125.68
13 201 13/U17 FFS2675463 2003 MISSILLIER CONSTANT MB SC GD BORNAN 2:39.67 04.64 125.92
14 203 14/U17 FFS2658773 2003 MARSEILLE NATHAN AP GAP-BAYARD 2:39.93 04.90 127.93
15 208 15/U17 FFS2659978 2004 BOTET MARTIN MV LA BRESSAUDE 2:40.55 05.52 132.73
16 198 16/U17 FFS2670579 2003 ALLEMAND NEIL AP AS EDELWEISS 2:40.72 05.69 134.04
16 200 16/U17 FFS2660024 2003 JACOB CORENTIN MV BASS/RUPT SN 2:40.72 05.69 134.04
18 215 18/U17 FFS2676437 2003 BAVEREL PIERRE MJ ES SAUGETTE 2:41.15 06.12 137.37
19 280 19/U17 FAE006 2003 SELLES BERNAT SP CATALOGNE 2:41.68 06.65 141.47
20 218 20/U17 FFS2660504 2003 PASQUALON ELIO DA US AUTRANNAI 2:42.12 07.09 144.88
21 210 21/U17 FFS2653739 2003 GALLOIS ROMAN MJ BOIS D'AMONT 2:42.36 07.33 146.74
22 194 22/U17 FFS2670987 2003 VAUTHIER MATHURIN MV LA BRESSAUDE 2:42.59 07.56 148.52
23 256 23/U17 FFS2665260 2004 TAGLIONE ENZO MJ SMBM/MORBIER 2:42.71 07.68 149.45
24 217 24/U17 FFS2659939 2004 PORRET EMIL DA US AUTRANNAI 2:42.84 07.81 150.45
25 193 25/U17 FFS2657534 2003 PIALAT MAXENCE MB CS LA CLUSAZ 2:42.96 07.93 151.38
26 205 26/U17 FFS2681218 2003 ROUTIN HUGO MB PRAZ LYS-SOM 2:43.00 07.97 151.69
27 209 27/U17 FFS2675689 2003 MALGRAND HUGO MB PRAZ LYS-SOM 2:43.09 08.06 152.39
28 234 28/U17 FFS2670606 2003 SIMONOT ANTONIN SA CS LA FECLAZ 2:43.15 08.12 152.85
29 221 29/U17 FFS2661951 2004 SEROT HUGO SA SC BOZEL 2:43.28 08.25 153.86
30 207 30/U17 FFS2656732 2003 BLANC MATHIEU SA CS MERIBEL 2:43.41 08.38 154.86
31 231 31/U17 FFS2665846 2004 SAGE MARTIN DA SN CHARTROUS 2:43.65 08.62 156.72
32 224 32/U17 FFS2664151 2004 CAILLOT FELIX DA SA MEAUDRAIS 2:44.03 09.00 159.66
33 250 33/U17 FFS2667291 2004 MOALIC ERWAN DA CO 7 LAUX GR 2:44.19 09.16 160.90
34 223 34/U17 FFS2676132 2004 ZANELLATO UGO SA CS LA FECLAZ 2:44.24 09.21 161.29
35 281 35/U17 FAE009 2004 VILARO ROC SP CATALOGNE 2:44.40 09.37 162.53
36 206 36/U17 FFS2666900 2004 JAN PIERRE MV GERARDMER SN 2:44.50 09.47 163.30
37 268 37/U17 FFS2670581 2003 CHEVALIER BOIVERT QUENTIN AP AS EDELWEISS 2:44.51 09.48 163.38
38 254 38/U17 FFS2676777 2004 FRIBOURG QUENTIN AP SAUZE BARCEL 2:44.52 09.49 163.46
39 229 39/U17 FFS2681339 2003 LONCHAMPT LEO MJ PREMANON SC 2:44.59 09.56 164.00
40 232 40/U17 FFS2666711 2004 DONET GAETAN DA SA MEAUDRAIS 2:44.98 09.95 167.02
41 220 41/U17 FFS2675692 2004 LEUENBERGER LEO MV SC XONRUPT 2:44.99 09.96 167.09
42 199 42/U17 FFS2670999 2003 BERNAUDON MATHIS AP MTGVE V.CLAR 2:45.24 10.21 169.03
43 235 43/U17 FFS2675874 2004 GROSSET BOURBANGE ADAM DA GUC GRENOBLE 2:45.57 10.54 171.58
44 219 44/U17 FFS2670259 2004 BLANCHARD TITOUAN MB CS LA CLUSAZ 2:45.61 10.58 171.89
45 227 45/U17 FFS2665667 2003 SCHULTZ PAUL LY SC LE POIZAT 2:45.95 10.92 174.53
46 253 46/U17 FFS2682002 2004 REY MATHIEU DA CS VILLARD 2:46.11 11.08 175.76
47 277 47/U17 FFS2670264 2003 PROFIT MATHIS MB CS LA CLUSAZ 2:46.23 11.20 176.69
48 214 48/U17 FFS2665222 2004 DEUFFIC CHARLY DA US AUTRANNAI 2:46.39 11.36 177.93
49 239 49/U17 FFS2677221 2003 BARRAU NOA MB SALLANCHES 2:47.10 12.07 183.43
50 228 50/U17 FFS2658787 2004 GAULIER AUBIN DA CS VILLARD 2:47.24 12.21 184.51
51 216 51/U17 FFS2664168 2004 VINCENT LENNIE MJ SKI ROUSSES 2:47.43 12.40 185.98
52 274 52/U17 FFS2660505 2003 LECONTE VICTOR DA US AUTRANNAI 2:47.49 12.46 186.45
53 230 53/U17 FFS2658355 2004 DOUILLET BAPTISTE DA SN CHARTROUS 2:47.63 12.60 187.53
54 236 54/U17 FFS2677441 2004 BUET PIERRE LOIC MJ SMBM/MORBIER 2:48.67 13.64 195.58
55 240 55/U17 FFS2674515 2004 LANNE ANTOINE PE SC AZUN 2:49.85 14.82 204.71
56 258 56/U17 FFS2686923 2004 JACQUES ALBAN MJ OYE-PALLET 2:51.20 16.17 215.16
57 233 57/U17 FFS2664692 2004 GROS MICHELE MB SC CONTAMINE 2:51.21 16.18 215.24
58 238 58/U17 FFS2661244 2003 VERGNOLLE TITOUAN DA SN CHARTROUS 2:51.25 16.22 215.55
59 225 59/U17 FFS2661562 2003 CHATEAUNEUF OSCAR MJ BOIS D'AMONT 2:51.32 16.29 216.09
60 247 60/U17 FFS2658036 2003 BARON BAPTISTE MB CS LA CLUSAZ 2:51.94 16.91 220.89
61 265 61/U17 FFS2665219 2004 COSTE NIELS DA US AUTRANNAI 2:52.44 17.41 224.76
62 226 62/U17 FFS2681664 2004 PERROUD DORIAN MB SCNP ROCHOIS 2:52.61 17.58 226.08
63 284 63/U17 FAE007 2004 BORREL ANIOL SP CATALOGNE 2:53.38 18.35 232.04
64 264 64/U17 FFS2686888 2004 PELLEGRINI NINO MJ OYE-PALLET 2:53.62 18.59 233.89
65 263 65/U17 FFS2688059 2004 GUYETAND BASTIEN PE MONT ARG PVG 2:53.69 18.66 234.44
66 243 66/U17 FFS2680999 2004 GRAND JULIEN MJ SC GRANDVAUX 2:53.92 18.89 236.22
67 237 67/U17 FFS2681916 2003 BERROT MARTIN MJ OYE-PALLET 2:54.29 19.26 239.08
68 267 68/U17 FFS2670788 2004 BOUCAUD RAPHAEL DA US AUTRANNAI 2:54.53 19.50 240.94
69 271 69/U17 FFS2691698 2004 GEORGES THIBAULT MB SALLANCHES 2:54.85 19.82 243.42
70 255 70/U17 FFS2686357 2004 FAUVEL ROMAIN MV LAC BLANC SN 2:54.89 19.86 243.73
71 244 71/U17 FFS2686203 2004 MIGNOT BAPTISTE MJ SMBM/MORBIER 2:55.55 20.52 248.83
72 279 72/U17 FFS2705258 2004 POGOSIAN SEROJA MJ SC MONT NOIR 2:56.48 21.45 256.03
73 252 73/U17 FFS2687338 2004 RENAUD ALIX MJ DAMPRICHARD 2:56.73 21.70 257.97
74 248 74/U17 FFS2665905 2004 MAGINI ELOHANN LY CS VALROMEY 2:57.09 22.06 260.75
75 269 75/U17 FFS2678952 2004 FAVRE BONVIN TITOUAN MB SC GD BORNAN 2:57.82 22.79 266.40
76 266 76/U17 FFS2676581 2004 ROUX MATTEO AP MTGVE V.CLAR 2:58.02 22.99 267.95
77 283 77/U17 FAE001 2004 LOPEZ SAGALES XAVI SP CATALOGNE 2:58.11 23.08 268.65
78 241 78/U17 FFS2673533 2004 TUILLIERE ANDEOL AP LES TROLLS 2:58.60 23.57 272.44
79 249 79/U17 FFS2682515 2004 TOURNIER GABIN MJ ES SAUGETTE 2:58.72 23.69 273.37
80 262 80/U17 FFS2686392 2004 WERNER JOCELYN MV LAC BLANC SN 2:58.76 23.73 273.68
81 246 81/U17 FFS2681663 2004 LEVET GASTON MB SCNP ROCHOIS 2:59.12 24.09 276.47
82 286 82/U17 FFS2676460 2004 VERDIER ENZO MJ CSR PONTARLI 2:59.59 24.56 280.11
83 242 83/U17 FFS2681176 2003 VERDENET GASPARD MJ OYE-PALLET 3:00.41 25.38 286.45
84 245 84/U17 FFS2648791 2004 FORTINA ADAM MB SC CONTAMINE 3:00.42 25.39 286.53
85 259 85/U17 FFS2677531 2004 RAULIN TIMOTHE AP ES VALLOUISE 3:01.30 26.27 293.34
86 261 86/U17 FFS2662962 2004 PANISSET SIMON MB SC GD BORNAN 3:01.55 26.52 295.28
87 257 87/U17 FFS2681190 2004 SCHMITT MILO MJ HT JURA SKI 3:01.78 26.75 297.06
88 273 88/U17 FFS2664257 2004 MOREL VICTOR MJ SKI ROUSSES 3:02.43 27.40 302.09
89 260 89/U17 FFS2681694 2004 REBOULLET TOM MJ HT JURA SKI 3:03.70 28.67 311.92
90 290 90/U17 FFS2697033 2004 MICHAUD CLARET TONY MJ CSR PONTARLI 3:03.88 28.85 313.31
91 289 91/U17 FAE013 2003 GABARRO BERNAT SP CATALOGNE 3:03.91 28.88 313.54
92 270 92/U17 FFS2677438 2004 GLAVIEUX GUSTAVE MJ SMBM/MORBIER 3:04.85 29.82 320.82
93 282 93/U17 FFS2687265 2004 POCHARD ALEX KENZO MJ CSR PONTARLI 3:04.99 29.96 321.90
94 278 94/U17 FFS2665901 2004 JACQUET GAEL LY CS VALROMEY 3:05.15 30.12 323.14
95 251 95/U17 FFS2676774 2004 PETIOT PAUL AP ES VALLOUISE 3:06.58 31.55 334.21
96 275 96/U17 FFS2681798 2004 SAVOIE GASTON MJ HT JURA SKI 3:07.42 32.39 340.71
97 291 97/U17 FFS2677012 2004 BATLOGG THEOTIME MJ CSR PONTARLI 3:08.12 33.09 346.13
98 292 98/U17 FFS2686744 2004 VUEZ FELIX MJ OLYMP MT DOR 3:10.65 35.62 365.71
99 288 99/U17 FFS2691342 2004 JEAN ALEXIS CLEMENT MJ CSR PONTARLI 3:10.86 35.83 367.34
100 285 100/U17 FFS2651031 2003 VINCENT LUCAS MJ PREMANON SC 3:13.80 38.77 390.10
101 287 101/U17 FAE014 2004 BOLANOS ALEX SP CATALOGNE 3:14.02 38.99 391.80
102 272 102/U17 FFS2681002 2004 GONIN LEANDRE MB SC GD BORNAN 3:18.82 43.79 428.95
103 294 103/U17 FAE015 2004 PUIGGENER MARC SP CATALOGNE 3:26.14 51.11 485.61
Non partants
276 FFS2688655 2004 MOUCHET ZIAN MJ OYE-PALLET